Historyczne dane pomiarowe

Dodano dane terminowe – wersja testowa.

Dane z okresu 1951-2019

Wersja bazy: 1.34 [2019-03-16, lista zmian], aktualizacja planowana na 2019-04-15

Dane meteo z obszaru Polski uzyskane na podstawie danych udostępnionych przez Instytut Meteorologii i Gospodarki Wodnej – Państwowy Instytut Badawczy.

 

Wybierz Datę:    

       

TemperaturaWilgotnośćZachmurzenieWiatrCiśnienieWidzialnośćZjawiska
 Data    tng td wb rh cc ccl cl cm ch dir g1 g2 mslp ppp      
1999-08-01 00:00:00 13.9--- 9.4 11.474wxwxwx1wx--1017.1 992.5 0.0---wx
1999-08-01 01:00:00 12.4--- 8.9 10.579wxwxwxwx1wx--1017.3 992.6----wx
1999-08-01 02:00:00 10.7--- 8.6 9.687wxwxwxwx2wx--1017.7 992.8----wx
1999-08-01 03:00:00 10.3--- 8.8 9.590wxwxwxwx2wx--1017.8 992.9----wx
1999-08-01 04:00:00 11.4--- 9.8 10.590wxwxwxwx1wx--1017.9 993.1----wx
1999-08-01 05:00:00 12.8--- 10.7 11.687wxwxwxwx1wx--1018.0 993.3----wx
1999-08-01 06:00:00 16.3--- 10.9 13.270wxwxwxwx1wx--1017.8 993.4 0.0---wx
1999-08-01 07:00:00 19.6--- 14.8 16.674wxwxwxwx1wx--1017.7 993.6----wx
1999-08-01 08:00:00 22.2--- 13.0 16.656wxwxwxwx2wx--1017.4 993.5----wx
1999-08-01 09:00:00 23.0--- 10.4 15.645wxwxwxwx2wx--1017.1 993.3----wx
1999-08-01 10:00:00 24.8--- 10.7 16.441wxwxwx4wx--1016.8 993.1----wx
1999-08-01 11:00:00 26.2--- 9.5 16.435wxwxwxwx4wx--1016.2 992.6----wx
1999-08-01 12:00:00 24.6--- 9.0 15.637wxwxwx3wx--1016.3 992.6 0.0---wx
1999-08-01 13:00:00 25.0--- 10.5 16.440wxwxwx4wx--1015.9 992.2----wx
1999-08-01 14:00:00 24.8--- 9.3 15.838wxwxwx4wx--1015.8 992.1----wx
1999-08-01 15:00:00 24.6--- 9.7 15.939wxwxwxwx6wx--1015.8 992.1----wx
1999-08-01 16:00:00 23.4--- 10.1 15.643wxwxwxwx4wx--1016.2 992.4----wx
1999-08-01 17:00:00 22.8--- 11.4 16.049wxwxwxwx2wx--1016.2 992.4----wx
1999-08-01 18:00:00 21.8--- 10.1 15.047wxwxwxwx3wx--1016.6 992.7 0.0---wx
1999-08-01 19:00:00 21.0--- 9.9 14.649wxwxwxwx3wx--1016.9 992.9----wx
1999-08-01 20:00:00 20.2--- 10.8 14.755wxwxwxwx1wx--1017.3 993.2----wx
1999-08-01 21:00:00 18.6--- 11.2 14.362wxwxwxwx1wx--1017.9 993.7----wx
1999-08-01 22:00:00 16.4--- 10.0 12.866wxwxwx0wx--1018.0 993.6----wx
1999-08-01 23:00:00 15.7--- 10.4 12.771wxwxwx0wx--1018.1 993.6----wx

 

Źródłem pochodzenia danych jest Instytut Meteorologii i Gospodarki Wodnej – Państwowy Instytut Badawczy. Dane Instytutu Meteorologii i Gospodarki Wodnej – Państwowego Instytutu Badawczego zostały przetworzone.

Dane źródłowe można odnaleźć na stronie https://dane.imgw.pl